Gretna, Florida
Current Conditions -  °F | °C
As of 7:35 AM on Monday 24 Nov 2014 (Local Time) from K2J9 Reporting Station
Overcast Overcast  
Wind Chill: 73°   Ceiling: 1300
Heat Index: 73°   Visibility: 7mi
Dew Point: 73°   Wind: 8mph
Humidity: 100%   Direction: 230°SW
Pressure: 29.86"   Gusts: NA
Location:  30.62°N, 84.66°W
Report Text: K2J9 241235Z AUTO 23007KT 7SM SCT009 BKN013 OVC022 23/23 A2986 RMK AO1 P0015
Loading
Personal Weather Stations






























Interactive Weather Map New forecast layout! Learn more

10-Day Weather Forecast

Advertisements
Track Severe Weather on mobile